KAID/AID METAR and TAF weather

Enter ICAO airport designator
Station Type Date Time Source
KAID METAR 2021/01/27 13:55 UTC NOAA

KAID 271355Z AUTO 06006KT 10SM OVC015 M02/M05 A3023 RMK AO2 T10251050


Station Type Date Time Source
KAID Decoded METAR 2021/01/27 13:55 UTC NOAA

Anderson Municipal, IN, United States (KAID) 40-07N 085-37W
Jan 27, 2021 - 08:55 AM EST / 2021.01.27 1355 UTC
Wind: from the ENE (060 degrees) at 7 MPH (6 KT):0
Visibility: 10 mile(s):0
Sky conditions: overcast
Temperature: 27.5 F (-2.5 C)
Windchill: 19 F (-7 C):1
Dew Point: 23.0 F (-5.0 C)
Relative Humidity: 82%
Pressure (altimeter): 30.23 in. Hg (1023 hPa)
ob: KAID 271355Z AUTO 06006KT 10SM OVC015 M02/M05 A3023 RMK AO2 T10251050
cycle: 14

Station Type Date Time Source
KAID TAF UTC NOAA

Error!

Example: see airport list